Espanola, Canada
Current Conditions -  °F | °C
As of 3:00 AM on Sunday 26 Oct 2014 (Local Time) from CYZE Reporting Station
Overcast Overcast  
Wind Chill: 42°   Ceiling: 4100
Heat Index: 48°   Visibility: 9mi
Dew Point: 37°   Wind: 16mph
Humidity: 66%   Direction: 310°NW
Pressure: 29.66"   Gusts: 24mph
Location:  46.25°N, 81.77°W
Report Text: CYZE 260700Z AUTO 31014G21KT 9SM OVC041 09/03 A2966 RMK SLP048
Loading
Personal Weather Stations






























Interactive Weather Map
Tropical Storm Tracking
New forecast layout! Learn more

10-Day Weather Forecast

Advertisements
Track Severe Weather on mobile